Terminal Aerodrome Forecast
Issued by NWS

Home | Current Version | Previous Version | Text Only | Print | Product List | Glossary On
Versions: 1 2 3 4 5 6 7 8 9 10 11 12 13 14 15 16 17 18 19 20 21
825
FTUS44 KTSA 221700
TAFMLC
TAF
KMLC 221726Z 2218/2318 09004KT 3SM RA BR FEW050 BKN080 OVC090
     FM222200 09005KT P6SM OVC050
      TEMPO 2222/2301 6SM -RA BR BKN050
     FM230100 10005KT P6SM OVC050 PROB30 2312/2318 4SM -TSRA
      BKN030CB=

USA.gov is the U.S. government's official web portal to all federal, state and local government web resources and services.